createdAt,value
2019-05-30T00:00:36.104Z,1.90
2019-05-30T00:03:04.353Z,1.72
2019-05-30T00:05:31.817Z,1.95
2019-05-30T00:08:00.228Z,1.80
2019-05-30T00:10:27.837Z,2.10
2019-05-30T00:12:56.596Z,1.98
2019-05-30T00:15:25.364Z,1.83
2019-05-30T00:17:52.688Z,2.13
2019-05-30T00:20:21.862Z,2.60
2019-05-30T00:22:49.297Z,2.00
2019-05-30T00:25:16.669Z,2.20
2019-05-30T00:27:43.950Z,1.93
2019-05-30T00:30:24.012Z,2.30
2019-05-30T00:32:40.805Z,2.37
2019-05-30T00:35:08.229Z,2.25
2019-05-30T00:37:35.727Z,2.10
2019-05-30T00:40:04.138Z,2.27
2019-05-30T00:42:31.600Z,2.37
2019-05-30T00:44:59.981Z,3.13
2019-05-30T00:47:27.606Z,2.30
2019-05-30T00:49:56.143Z,2.47
2019-05-30T00:52:23.668Z,2.37
2019-05-30T00:54:52.845Z,2.10
2019-05-30T00:57:20.146Z,2.13
2019-05-30T00:59:47.474Z,2.50
2019-05-30T01:02:16.708Z,2.37
2019-05-30T01:04:45.141Z,2.40
2019-05-30T01:07:12.458Z,2.10
2019-05-30T01:09:39.918Z,2.57
2019-05-30T01:12:07.511Z,2.63
2019-05-30T01:14:34.968Z,2.50
2019-05-30T01:17:03.167Z,2.75
2019-05-30T01:19:30.684Z,2.40
2019-05-30T01:21:59.096Z,2.67
2019-05-30T01:24:26.731Z,2.00
2019-05-30T01:26:54.040Z,2.00
2019-05-30T01:29:21.344Z,2.13
2019-05-30T01:31:48.697Z,2.30
2019-05-30T01:34:16.012Z,2.03
2019-05-30T01:36:43.352Z,2.47
2019-05-30T01:39:10.694Z,2.07
2019-05-30T01:41:38.113Z,3.13
2019-05-30T01:44:06.086Z,2.07
2019-05-30T01:46:33.639Z,2.27
2019-05-30T01:49:02.239Z,1.97
2019-05-30T01:51:29.781Z,2.23
2019-05-30T01:53:58.881Z,2.20
2019-05-30T01:56:26.192Z,2.07
2019-05-30T01:58:53.473Z,2.13
2019-05-30T02:01:25.052Z,2.03
2019-05-30T02:03:49.998Z,2.13
2019-05-30T02:06:19.128Z,2.13
2019-05-30T02:08:46.529Z,1.97
2019-05-30T02:11:13.855Z,2.20
2019-05-30T02:13:41.149Z,1.73
2019-05-30T02:16:09.837Z,2.40
2019-05-30T02:18:37.297Z,2.00
2019-05-30T02:21:05.757Z,3.10
2019-05-30T02:23:33.294Z,1.87
2019-05-30T02:26:02.106Z,1.77
2019-05-30T02:28:29.748Z,1.90
2019-05-30T02:30:57.058Z,2.00
2019-05-30T02:33:26.269Z,1.80
2019-05-30T02:35:53.609Z,1.90
2019-05-30T02:38:21.117Z,2.77
2019-05-30T02:40:51.570Z,2.20
2019-05-30T02:43:20.718Z,1.80
2019-05-30T02:45:48.036Z,1.80
2019-05-30T02:48:15.436Z,1.93
2019-05-30T02:50:42.757Z,2.67
2019-05-30T02:53:10.955Z,2.00
2019-05-30T02:55:39.495Z,2.50
2019-05-30T02:58:08.595Z,2.30
2019-05-30T03:00:37.364Z,2.33
2019-05-30T03:03:06.539Z,2.40
2019-05-30T03:05:34.219Z,2.47
2019-05-30T03:08:02.566Z,2.00
2019-05-30T03:10:31.039Z,2.00
2019-05-30T03:12:58.472Z,2.00
2019-05-30T03:15:26.511Z,2.50
2019-05-30T03:17:54.129Z,2.20
2019-05-30T03:20:23.444Z,2.23
2019-05-30T03:22:50.905Z,1.90
2019-05-30T03:25:18.594Z,2.07
2019-05-30T03:27:46.015Z,2.10
2019-05-30T03:30:25.533Z,1.83
2019-05-30T03:35:24.038Z,2.10
2019-05-30T03:37:41.720Z,2.20
2019-05-30T03:40:09.325Z,2.07
2019-05-30T03:42:36.792Z,1.90
2019-05-30T03:45:06.388Z,2.37
2019-05-30T03:47:37.529Z,2.37
2019-05-30T03:50:07.341Z,2.30
2019-05-30T03:52:35.528Z,1.93
2019-05-30T03:55:04.850Z,3.37
2019-05-30T03:57:36.147Z,2.10
2019-05-30T04:00:09.410Z,2.40
2019-05-30T04:02:57.325Z,2.00
2019-05-30T04:05:23.468Z,2.10
2019-05-30T04:07:53.750Z,2.20
2019-05-30T04:10:24.680Z,2.77
2019-05-30T04:13:09.906Z,2.50
2019-05-30T04:15:38.166Z,1.90
2019-05-30T04:18:07.021Z,2.40
2019-05-30T04:20:34.665Z,2.40
2019-05-30T04:23:02.106Z,1.87
2019-05-30T04:25:29.499Z,2.20
2019-05-30T04:27:56.837Z,2.93
2019-05-30T04:30:24.134Z,2.30
2019-05-30T04:32:51.485Z,2.13
2019-05-30T04:35:19.053Z,2.23
2019-05-30T04:37:49.308Z,2.13
2019-05-30T04:40:17.701Z,2.30
2019-05-30T04:42:46.124Z,2.20
2019-05-30T04:45:16.006Z,2.30
2019-05-30T04:47:43.847Z,2.40
2019-05-30T04:50:12.186Z,2.37
2019-05-30T04:52:39.651Z,2.43
2019-05-30T04:55:07.695Z,2.60
2019-05-30T04:57:35.118Z,2.40
2019-05-30T05:00:02.661Z,2.57
2019-05-30T05:02:30.055Z,2.43
2019-05-30T05:04:57.370Z,2.50
2019-05-30T05:07:24.714Z,2.40
2019-05-30T05:09:52.002Z,2.57
2019-05-30T05:12:20.391Z,2.57
2019-05-30T05:14:47.852Z,2.47
2019-05-30T05:17:16.607Z,2.77
2019-05-30T05:19:44.430Z,2.63
2019-05-30T05:22:12.794Z,2.77
2019-05-30T05:24:40.395Z,2.77
2019-05-30T05:27:09.888Z,2.77
2019-05-30T05:29:36.922Z,2.40
2019-05-30T05:32:06.031Z,2.80
2019-05-30T05:34:35.160Z,2.90
2019-05-30T05:37:02.570Z,2.80
2019-05-30T05:39:30.898Z,2.00
2019-05-30T05:41:58.218Z,3.07
2019-05-30T05:44:25.526Z,2.80
2019-05-30T05:46:52.845Z,2.77
2019-05-30T05:49:20.578Z,2.57
2019-05-30T05:51:48.090Z,2.40
2019-05-30T05:54:16.706Z,2.90
2019-05-30T05:56:45.328Z,3.67
2019-05-30T05:59:12.722Z,2.33
2019-05-30T06:01:40.151Z,2.57
2019-05-30T06:04:13.281Z,2.67
2019-05-30T06:06:37.798Z,2.80
2019-05-30T06:09:06.592Z,2.63
2019-05-30T06:11:33.982Z,2.67
2019-05-30T06:14:01.287Z,3.27
2019-05-30T06:16:28.710Z,3.20
2019-05-30T06:18:56.116Z,2.77
2019-05-30T06:21:23.542Z,2.97
2019-05-30T06:23:51.067Z,3.00
2019-05-30T06:26:19.813Z,2.63
2019-05-30T06:28:51.746Z,5.43
2019-05-30T06:31:20.242Z,3.10
2019-05-30T06:33:47.705Z,3.00
2019-05-30T06:36:16.137Z,3.22
2019-05-30T06:38:43.436Z,2.80
2019-05-30T06:41:11.118Z,2.35
2019-05-30T06:43:38.599Z,2.98
2019-05-30T06:46:06.040Z,2.20
2019-05-30T06:48:33.509Z,2.60
2019-05-30T06:51:00.981Z,2.98
2019-05-30T06:53:29.394Z,2.35
2019-05-30T06:55:56.802Z,3.33
2019-05-30T06:58:44.864Z,2.72
2019-05-30T07:00:53.825Z,3.47
2019-05-30T07:03:22.083Z,2.30
2019-05-30T07:05:51.290Z,2.42
2019-05-30T07:08:18.896Z,2.17
2019-05-30T07:10:46.305Z,1.90
2019-05-30T07:13:13.722Z,3.45
2019-05-30T07:15:41.053Z,2.35
2019-05-30T07:18:08.355Z,2.22
2019-05-30T07:20:35.702Z,2.80
2019-05-30T07:23:04.963Z,4.60
2019-05-30T07:25:34.087Z,2.20
2019-05-30T07:28:01.690Z,1.95
2019-05-30T07:30:29.987Z,3.90
2019-05-30T07:32:57.433Z,2.30
2019-05-30T07:35:25.881Z,3.80
2019-05-30T07:37:53.389Z,3.35
2019-05-30T07:40:21.044Z,1.85
2019-05-30T07:42:48.473Z,1.90
2019-05-30T07:45:16.230Z,2.40
2019-05-30T07:47:43.597Z,1.98
2019-05-30T07:50:11.431Z,10.13
2019-05-30T07:52:39.034Z,4.12
2019-05-30T07:55:09.083Z,4.67
2019-05-30T07:57:39.731Z,2.60
2019-05-30T08:00:07.726Z,2.17
2019-05-30T08:02:37.970Z,1.92
2019-05-30T08:05:22.482Z,2.77
2019-05-30T08:07:35.144Z,1.80
2019-05-30T08:10:04.906Z,1.87
2019-05-30T08:12:32.227Z,3.02
2019-05-30T08:15:00.672Z,1.67
2019-05-30T08:17:27.996Z,2.08
2019-05-30T08:19:55.353Z,3.00
2019-05-30T08:22:22.679Z,1.85
2019-05-30T08:24:50.012Z,1.70
2019-05-30T08:27:17.310Z,3.10
2019-05-30T08:29:44.649Z,3.30
2019-05-30T08:32:13.082Z,1.70
2019-05-30T08:34:40.401Z,2.00
2019-05-30T08:37:07.719Z,1.80
2019-05-30T08:39:35.316Z,1.90
2019-05-30T08:42:02.987Z,2.00
2019-05-30T08:44:31.553Z,1.60
2019-05-30T08:46:59.009Z,2.15
2019-05-30T08:49:26.305Z,1.45
2019-05-30T08:51:53.672Z,1.50
2019-05-30T08:54:21.005Z,1.60
2019-05-30T08:56:48.534Z,1.47
2019-05-30T08:59:15.865Z,1.15
2019-05-30T09:01:43.936Z,1.40
2019-05-30T09:04:11.881Z,1.25
2019-05-30T09:06:39.950Z,1.07
2019-05-30T09:09:08.735Z,1.40
2019-05-30T09:11:37.748Z,1.02
2019-05-30T09:14:06.488Z,1.00
2019-05-30T09:16:33.893Z,1.00
2019-05-30T09:19:01.324Z,1.75
2019-05-30T09:21:28.788Z,1.00
2019-05-30T09:24:00.420Z,1.12
2019-05-30T09:26:25.363Z,1.00
2019-05-30T09:28:52.722Z,1.12
2019-05-30T09:31:20.091Z,1.30
2019-05-30T09:33:48.564Z,1.12
2019-05-30T09:36:16.147Z,2.55
2019-05-30T09:38:43.622Z,1.15
2019-05-30T09:41:11.203Z,1.27
2019-05-30T09:43:41.092Z,1.75
2019-05-30T09:46:08.857Z,1.05
2019-05-30T09:48:36.188Z,1.50
2019-05-30T09:51:03.598Z,1.02
2019-05-30T09:53:31.123Z,1.20
2019-05-30T09:55:58.469Z,1.27
2019-05-30T09:58:25.785Z,1.10
2019-05-30T10:00:53.084Z,1.82
2019-05-30T10:03:20.398Z,1.60
2019-05-30T10:05:48.655Z,4.25
2019-05-30T10:08:16.152Z,1.82
2019-05-30T10:10:45.334Z,1.32
2019-05-30T10:13:12.842Z,1.20
2019-05-30T10:15:40.327Z,1.20
2019-05-30T10:18:07.679Z,1.10
2019-05-30T10:20:35.027Z,1.10
2019-05-30T10:23:03.714Z,1.40
2019-05-30T10:25:31.216Z,1.12
2019-05-30T10:27:58.627Z,1.32
2019-05-30T10:30:26.347Z,1.20
2019-05-30T10:32:53.880Z,1.10
2019-05-30T10:35:21.584Z,1.05
2019-05-30T10:37:49.182Z,1.32
2019-05-30T10:40:18.034Z,1.20
2019-05-30T10:42:46.212Z,3.33
2019-05-30T10:45:15.316Z,1.27
2019-05-30T10:47:42.625Z,1.20
2019-05-30T10:50:10.556Z,1.30
2019-05-30T10:52:37.870Z,1.22
2019-05-30T10:55:06.344Z,1.10
2019-05-30T10:57:33.654Z,1.25
2019-05-30T11:00:00.967Z,2.00
2019-05-30T11:02:29.694Z,1.40
2019-05-30T11:04:58.191Z,1.40
2019-05-30T11:07:35.220Z,1.30
2019-05-30T11:10:07.351Z,1.30
2019-05-30T11:12:34.690Z,1.30
2019-05-30T11:15:02.355Z,1.20
2019-05-30T11:17:29.936Z,1.75
2019-05-30T11:19:57.976Z,1.50
2019-05-30T11:22:25.515Z,1.60
2019-05-30T11:24:52.894Z,2.12
2019-05-30T11:27:20.344Z,1.40
2019-05-30T11:29:48.690Z,1.32
2019-05-30T11:32:16.205Z,2.05
2019-05-30T11:34:43.514Z,1.07
2019-05-30T11:37:18.856Z,1.52
2019-05-30T11:39:40.110Z,1.40
2019-05-30T11:42:07.391Z,1.40
2019-05-30T11:44:34.743Z,1.30
2019-05-30T11:47:02.039Z,2.33
2019-05-30T11:49:29.342Z,1.27
2019-05-30T11:51:57.784Z,1.40
2019-05-30T11:54:26.525Z,1.62
2019-05-30T11:56:56.069Z,1.40
2019-05-30T11:59:23.601Z,1.90
2019-05-30T12:01:52.926Z,1.50
2019-05-30T12:04:22.369Z,1.50
2019-05-30T12:06:51.110Z,2.35
2019-05-30T12:09:18.940Z,1.55
2019-05-30T12:11:46.269Z,1.27
2019-05-30T12:14:13.618Z,1.50
2019-05-30T12:16:40.894Z,1.45
2019-05-30T12:19:08.206Z,1.42
2019-05-30T12:21:35.524Z,1.35
2019-05-30T12:24:02.979Z,2.52
2019-05-30T12:26:33.679Z,2.10
2019-05-30T12:29:00.165Z,1.47
2019-05-30T12:31:27.673Z,0.80
2019-05-30T12:33:56.175Z,1.20
2019-05-30T12:36:23.761Z,0.95
2019-05-30T12:38:52.156Z,1.10
2019-05-30T12:41:19.618Z,0.80
2019-05-30T12:43:48.755Z,0.70
2019-05-30T12:46:16.072Z,0.80
2019-05-30T12:48:43.511Z,0.70
2019-05-30T12:51:10.835Z,1.52
2019-05-30T12:53:38.180Z,0.82
2019-05-30T12:56:06.793Z,0.68
2019-05-30T12:58:34.646Z,0.70
2019-05-30T13:01:02.989Z,0.72
2019-05-30T13:03:30.709Z,0.93
2019-05-30T13:05:59.166Z,0.70
2019-05-30T13:08:26.685Z,0.70
2019-05-30T13:10:55.358Z,0.80
2019-05-30T13:13:23.054Z,0.78
2019-05-30T13:15:50.392Z,1.15
2019-05-30T13:18:18.882Z,1.47
2019-05-30T13:20:46.432Z,1.40
2019-05-30T13:23:13.870Z,0.90
2019-05-30T13:25:41.195Z,1.12
2019-05-30T13:28:08.789Z,1.35
2019-05-30T13:30:36.210Z,0.78
2019-05-30T13:33:04.840Z,0.72
2019-05-30T13:35:32.268Z,0.72
2019-05-30T13:38:00.837Z,1.95
2019-05-30T13:40:28.792Z,2.05
2019-05-30T13:42:56.124Z,1.22
2019-05-30T13:45:23.544Z,0.85
2019-05-30T13:47:50.888Z,1.22
2019-05-30T13:50:18.706Z,0.90
2019-05-30T13:52:46.051Z,0.80
2019-05-30T13:55:13.937Z,1.00
2019-05-30T13:57:41.361Z,0.80
2019-05-30T14:00:10.826Z,0.80
2019-05-30T14:02:38.243Z,1.00
2019-05-30T14:05:08.183Z,1.85
2019-05-30T14:07:35.685Z,0.78
2019-05-30T14:10:04.311Z,0.95
2019-05-30T14:12:31.724Z,0.80
2019-05-30T14:14:59.048Z,1.00
2019-05-30T14:17:26.477Z,0.75
2019-05-30T14:19:53.857Z,0.85
2019-05-30T14:22:21.168Z,0.90
2019-05-30T14:24:48.506Z,0.70
2019-05-30T14:27:16.195Z,0.72
2019-05-30T14:29:43.483Z,0.70
2019-05-30T14:32:11.988Z,0.88
2019-05-30T14:34:39.414Z,0.60
2019-05-30T14:37:06.752Z,1.05
2019-05-30T14:39:36.950Z,1.00
2019-05-30T14:42:05.033Z,0.72
2019-05-30T14:44:32.511Z,1.25
2019-05-30T14:47:00.130Z,1.30
2019-05-30T14:49:27.562Z,1.12
2019-05-30T14:51:54.881Z,0.70
2019-05-30T14:54:22.283Z,1.00
2019-05-30T14:56:49.666Z,2.15
2019-05-30T14:59:17.215Z,0.80
2019-05-30T15:01:44.694Z,1.62
2019-05-30T15:04:12.016Z,1.35
2019-05-30T15:06:39.349Z,0.80
2019-05-30T15:09:18.945Z,0.70
2019-05-30T15:11:39.998Z,0.80
2019-05-30T15:14:08.644Z,0.80
2019-05-30T15:16:36.175Z,0.90
2019-05-30T15:19:03.549Z,1.07
2019-05-30T15:21:30.990Z,1.40
2019-05-30T15:23:58.322Z,0.70
2019-05-30T15:26:26.750Z,0.80
2019-05-30T15:28:55.850Z,0.70
2019-05-30T15:31:23.187Z,0.93
2019-05-30T15:33:50.601Z,0.90
2019-05-30T15:36:19.763Z,2.08
2019-05-30T15:38:47.158Z,0.68
2019-05-30T15:41:15.251Z,1.87
2019-05-30T15:43:42.729Z,2.70
2019-05-30T15:46:10.045Z,1.10
2019-05-30T15:48:37.372Z,1.12
2019-05-30T15:51:05.842Z,1.10
2019-05-30T15:53:33.493Z,0.90
2019-05-30T15:56:00.828Z,0.80
2019-05-30T15:58:28.164Z,0.98
2019-05-30T16:00:55.482Z,0.62
2019-05-30T16:03:22.828Z,0.70
2019-05-30T16:05:50.141Z,1.85
2019-05-30T16:08:18.765Z,1.30
2019-05-30T16:10:46.270Z,0.80
2019-05-30T16:13:13.616Z,0.80
2019-05-30T16:15:44.200Z,0.75
2019-05-30T16:18:11.552Z,0.90
2019-05-30T16:20:39.090Z,0.60
2019-05-30T16:23:06.382Z,0.70
2019-05-30T16:25:33.823Z,0.98
2019-05-30T16:28:02.950Z,0.90
2019-05-30T16:30:30.239Z,1.95
2019-05-30T16:32:57.643Z,9.55
2019-05-30T16:35:26.347Z,2.25
2019-05-30T16:37:53.942Z,1.65
2019-05-30T16:40:24.170Z,1.55
2019-05-30T16:42:51.463Z,1.30
2019-05-30T16:45:24.625Z,1.00
2019-05-30T16:47:49.481Z,1.22
2019-05-30T16:50:20.685Z,0.75
2019-05-30T16:52:48.131Z,0.90
2019-05-30T16:55:15.468Z,0.80
2019-05-30T16:57:44.571Z,0.90
2019-05-30T17:00:12.638Z,0.80
2019-05-30T17:02:39.963Z,1.00
2019-05-30T17:05:08.086Z,0.70
2019-05-30T17:07:35.404Z,0.85
2019-05-30T17:10:02.927Z,1.85
2019-05-30T17:12:30.241Z,1.07
2019-05-30T17:14:57.587Z,0.82
2019-05-30T17:17:24.892Z,1.00
2019-05-30T17:19:52.516Z,0.82
2019-05-30T17:22:20.630Z,1.42
2019-05-30T17:24:48.077Z,0.93
2019-05-30T17:27:15.417Z,1.00
2019-05-30T17:29:42.835Z,1.00
2019-05-30T17:32:10.162Z,0.78
2019-05-30T17:34:37.499Z,1.15
2019-05-30T17:37:05.074Z,0.90
2019-05-30T17:39:32.520Z,1.00
2019-05-30T17:41:59.808Z,2.47
2019-05-30T17:44:27.245Z,1.52
2019-05-30T17:46:54.760Z,1.15
2019-05-30T17:49:22.075Z,1.25
2019-05-30T17:51:50.012Z,0.95
2019-05-30T17:54:17.568Z,1.12
2019-05-30T17:56:44.923Z,0.90
2019-05-30T17:59:12.245Z,2.25
2019-05-30T18:01:39.587Z,1.22
2019-05-30T18:04:07.005Z,0.90
2019-05-30T18:06:34.429Z,1.15
2019-05-30T18:09:03.956Z,0.98
2019-05-30T18:11:31.480Z,1.65
2019-05-30T18:13:58.813Z,0.70
2019-05-30T18:16:27.095Z,0.90
2019-05-30T18:18:54.636Z,0.70
2019-05-30T18:21:21.970Z,0.95
2019-05-30T18:23:49.317Z,0.85
2019-05-30T18:26:16.630Z,0.80
2019-05-30T18:28:43.946Z,0.80
2019-05-30T18:31:11.931Z,1.15
2019-05-30T18:33:39.236Z,1.45
2019-05-30T18:36:06.560Z,0.82
2019-05-30T18:38:33.877Z,1.87
2019-05-30T18:41:10.829Z,1.40
2019-05-30T18:43:31.513Z,0.88
2019-05-30T18:45:58.835Z,1.20
2019-05-30T18:48:27.259Z,1.67
2019-05-30T18:50:54.963Z,1.07
2019-05-30T18:53:22.450Z,1.00
2019-05-30T18:55:49.952Z,0.80
2019-05-30T18:58:17.283Z,0.80
2019-05-30T19:00:44.631Z,1.02
2019-05-30T19:03:12.145Z,1.52
2019-05-30T19:05:39.508Z,2.22
2019-05-30T19:08:07.025Z,1.70
2019-05-30T19:10:34.362Z,1.85
2019-05-30T19:13:03.489Z,1.95
2019-05-30T19:15:32.619Z,1.90
2019-05-30T19:18:00.080Z,1.45
2019-05-30T19:20:27.698Z,3.25
2019-05-30T19:22:55.109Z,1.62
2019-05-30T19:25:22.402Z,1.50
2019-05-30T19:27:49.742Z,1.40
2019-05-30T19:30:17.396Z,2.45
2019-05-30T19:33:04.191Z,1.52
2019-05-30T19:35:33.101Z,1.85
2019-05-30T19:38:00.587Z,1.70
2019-05-30T19:40:27.899Z,1.60
2019-05-30T19:42:55.194Z,1.67
2019-05-30T19:45:22.590Z,1.70
2019-05-30T19:47:49.958Z,2.52
2019-05-30T19:50:17.254Z,2.12
2019-05-30T19:52:46.894Z,1.85
2019-05-30T19:55:13.975Z,2.00
2019-05-30T19:57:41.342Z,2.37
2019-05-30T20:00:10.515Z,4.75
2019-05-30T20:02:38.408Z,2.70
2019-05-30T20:05:06.044Z,2.42
2019-05-30T20:07:34.509Z,3.00
2019-05-30T20:10:02.155Z,2.80
2019-05-30T20:12:30.666Z,3.10
2019-05-30T20:14:58.162Z,2.95
2019-05-30T20:17:45.010Z,2.12
2019-05-30T20:20:12.704Z,2.58
2019-05-30T20:22:40.287Z,1.98
2019-05-30T20:25:08.590Z,2.10
2019-05-30T20:27:36.686Z,2.00
2019-05-30T20:30:05.477Z,1.98
2019-05-30T20:32:34.323Z,17.80
2019-05-30T20:35:02.033Z,16.60
2019-05-30T20:37:29.469Z,6.90
2019-05-30T20:39:58.668Z,6.47
2019-05-30T20:42:27.180Z,5.72
2019-05-30T20:44:54.499Z,4.37
2019-05-30T20:47:21.805Z,4.33
2019-05-30T20:49:49.148Z,3.25
2019-05-30T20:52:16.529Z,3.10
2019-05-30T20:54:43.933Z,3.10
2019-05-30T20:57:12.366Z,3.30
2019-05-30T20:59:42.749Z,3.45
2019-05-30T21:02:10.423Z,4.08
2019-05-30T21:04:38.770Z,9.70
2019-05-30T21:07:07.463Z,9.43
2019-05-30T21:09:37.748Z,11.57
2019-05-30T21:12:05.198Z,7.58
2019-05-30T21:14:35.356Z,6.95
2019-05-30T21:17:02.949Z,5.33
2019-05-30T21:19:30.254Z,4.67
2019-05-30T21:21:57.571Z,5.37
2019-05-30T21:24:24.898Z,4.30
2019-05-30T21:26:52.406Z,3.05
2019-05-30T21:29:19.727Z,2.20
2019-05-30T21:31:47.561Z,2.80
2019-05-30T21:34:16.922Z,2.05
2019-05-30T21:36:44.528Z,2.25
2019-05-30T21:39:12.316Z,2.08
2019-05-30T21:41:40.160Z,1.50
2019-05-30T21:44:07.739Z,2.72
2019-05-30T21:46:35.053Z,2.00
2019-05-30T21:49:02.512Z,1.50
2019-05-30T21:51:30.902Z,2.80
2019-05-30T21:53:58.227Z,2.45
2019-05-30T21:56:25.558Z,2.17
2019-05-30T21:58:53.003Z,1.92
2019-05-30T22:01:28.703Z,1.27
2019-05-30T22:03:57.325Z,1.45
2019-05-30T22:06:24.667Z,1.40
2019-05-30T22:08:52.102Z,1.02
2019-05-30T22:11:20.319Z,1.50
2019-05-30T22:13:47.741Z,1.37
2019-05-30T22:16:15.168Z,1.30
2019-05-30T22:18:44.017Z,1.27
2019-05-30T22:21:11.601Z,1.22
2019-05-30T22:23:38.935Z,1.30
2019-05-30T22:26:06.393Z,1.00
2019-05-30T22:28:33.726Z,1.30
2019-05-30T22:31:01.054Z,1.15
2019-05-30T22:33:28.485Z,1.17
2019-05-30T22:35:55.799Z,1.25
2019-05-30T22:38:23.111Z,1.40
2019-05-30T22:40:50.416Z,0.98
2019-05-30T22:43:25.176Z,1.42
2019-05-30T22:45:48.111Z,1.30
2019-05-30T22:48:15.603Z,1.80
2019-05-30T22:50:43.032Z,2.08
2019-05-30T22:53:10.341Z,1.30
2019-05-30T22:55:37.681Z,1.27
2019-05-30T22:58:05.026Z,1.92
2019-05-30T23:00:32.421Z,1.65
2019-05-30T23:02:59.762Z,1.42
2019-05-30T23:05:27.069Z,1.20
2019-05-30T23:07:55.558Z,1.30
2019-05-30T23:10:23.104Z,2.35
2019-05-30T23:12:52.319Z,1.30
2019-05-30T23:15:19.633Z,1.03
2019-05-30T23:17:48.232Z,1.00
2019-05-30T23:20:15.891Z,1.12
2019-05-30T23:22:43.271Z,1.20
2019-05-30T23:25:10.671Z,0.93
2019-05-30T23:27:37.959Z,1.12
2019-05-30T23:30:05.715Z,1.07
2019-05-30T23:32:33.127Z,1.10
2019-05-30T23:35:02.254Z,1.10
2019-05-30T23:37:29.547Z,1.20
2019-05-30T23:39:56.931Z,1.05
2019-05-30T23:42:24.335Z,0.90
2019-05-30T23:44:51.632Z,0.87
2019-05-30T23:47:19.143Z,1.00
2019-05-30T23:49:46.648Z,1.00
2019-05-30T23:52:15.789Z,1.00
2019-05-30T23:54:43.098Z,1.92
2019-05-30T23:57:10.414Z,0.93
2019-05-30T23:59:37.693Z,1.12
